sensor_id;sensor_type;location;lat;lon;timestamp;pressure;altitude;pressure_sealevel;temperature;humidity
47706;BME280;33471;52.104;1.318;2023-02-17T00:02:23;101446.23;;;9.42;59.53
47706;BME280;33471;52.104;1.318;2023-02-17T00:04:51;101440.11;;;10.51;58.17
47706;BME280;33471;52.104;1.318;2023-02-17T00:07:19;101433.09;;;9.44;60.20
47706;BME280;33471;52.104;1.318;2023-02-17T00:09:46;101427.62;;;10.18;59.00
47706;BME280;33471;52.104;1.318;2023-02-17T00:12:13;101436.99;;;10.48;58.62
47706;BME280;33471;52.104;1.318;2023-02-17T00:14:40;101434.82;;;9.97;59.10
47706;BME280;33471;52.104;1.318;2023-02-17T00:17:07;101439.66;;;9.49;59.43
47706;BME280;33471;52.104;1.318;2023-02-17T00:19:34;101423.91;;;9.32;60.75
47706;BME280;33471;52.104;1.318;2023-02-17T00:22:01;101443.79;;;8.78;62.82
47706;BME280;33471;52.104;1.318;2023-02-17T00:24:35;101438.76;;;9.18;61.89
47706;BME280;33471;52.104;1.318;2023-02-17T00:27:03;101442.20;;;9.94;59.73
47706;BME280;33471;52.104;1.318;2023-02-17T00:29:31;101441.01;;;10.02;59.95
47706;BME280;33471;52.104;1.318;2023-02-17T00:31:58;101428.10;;;9.98;59.00
47706;BME280;33471;52.104;1.318;2023-02-17T00:34:25;101436.37;;;10.51;58.92
47706;BME280;33471;52.104;1.318;2023-02-17T00:36:53;101430.05;;;9.24;62.14
47706;BME280;33471;52.104;1.318;2023-02-17T00:39:20;101427.51;;;9.72;60.75
47706;BME280;33471;52.104;1.318;2023-02-17T00:41:48;101424.95;;;9.45;61.93
47706;BME280;33471;52.104;1.318;2023-02-17T00:44:17;101422.09;;;10.01;60.40
47706;BME280;33471;52.104;1.318;2023-02-17T00:46:46;101420.33;;;9.40;60.60
47706;BME280;33471;52.104;1.318;2023-02-17T00:49:15;101424.37;;;9.96;59.43
47706;BME280;33471;52.104;1.318;2023-02-17T00:51:43;101430.48;;;10.26;58.96
47706;BME280;33471;52.104;1.318;2023-02-17T00:54:11;101422.08;;;10.37;57.75
47706;BME280;33471;52.104;1.318;2023-02-17T00:56:38;101423.96;;;10.14;59.22
47706;BME280;33471;52.104;1.318;2023-02-17T00:59:06;101423.45;;;10.23;58.43
47706;BME280;33471;52.104;1.318;2023-02-17T01:01:34;101420.48;;;10.13;59.43
47706;BME280;33471;52.104;1.318;2023-02-17T01:04:02;101419.24;;;9.95;60.59
47706;BME280;33471;52.104;1.318;2023-02-17T01:06:32;101411.93;;;9.58;62.04
47706;BME280;33471;52.104;1.318;2023-02-17T01:09:00;101411.31;;;9.95;61.32
47706;BME280;33471;52.104;1.318;2023-02-17T01:11:29;101413.87;;;9.64;63.02
47706;BME280;33471;52.104;1.318;2023-02-17T01:13:58;101409.91;;;9.87;62.28
47706;BME280;33471;52.104;1.318;2023-02-17T01:16:28;101414.06;;;9.54;64.03
47706;BME280;33471;52.104;1.318;2023-02-17T01:18:55;101422.22;;;9.47;63.58
47706;BME280;33471;52.104;1.318;2023-02-17T01:21:24;101422.12;;;9.11;65.18
47706;BME280;33471;52.104;1.318;2023-02-17T01:23:54;101420.46;;;8.79;66.14
47706;BME280;33471;52.104;1.318;2023-02-17T01:26:23;101417.59;;;9.91;63.62
47706;BME280;33471;52.104;1.318;2023-02-17T01:28:52;101415.47;;;9.21;64.57
47706;BME280;33471;52.104;1.318;2023-02-17T01:31:20;101413.06;;;9.77;64.12
47706;BME280;33471;52.104;1.318;2023-02-17T01:33:48;101412.86;;;9.95;63.62
47706;BME280;33471;52.104;1.318;2023-02-17T01:36:17;101412.38;;;10.51;61.59
47706;BME280;33471;52.104;1.318;2023-02-17T01:38:45;101411.02;;;9.16;66.21
47706;BME280;33471;52.104;1.318;2023-02-17T01:41:14;101412.31;;;9.65;64.98
47706;BME280;33471;52.104;1.318;2023-02-17T01:43:42;101414.91;;;9.76;65.62
47706;BME280;33471;52.104;1.318;2023-02-17T01:46:32;101410.75;;;9.53;65.98
47706;BME280;33471;52.104;1.318;2023-02-17T01:49:00;101404.76;;;10.02;64.15
47706;BME280;33471;52.104;1.318;2023-02-17T01:51:32;101410.39;;;10.15;64.39
47706;BME280;33471;52.104;1.318;2023-02-17T01:54:02;101417.72;;;10.44;64.25
47706;BME280;33471;52.104;1.318;2023-02-17T01:56:32;101418.32;;;10.36;62.83
47706;BME280;33471;52.104;1.318;2023-02-17T01:59:11;101408.47;;;11.23;61.50
47706;BME280;33471;52.104;1.318;2023-02-17T02:01:41;101415.08;;;10.43;63.67
47706;BME280;33471;52.104;1.318;2023-02-17T02:04:09;101407.04;;;10.97;61.38
47706;BME280;33471;52.104;1.318;2023-02-17T02:06:37;101404.77;;;11.01;61.85
47706;BME280;33471;52.104;1.318;2023-02-17T02:09:10;101405.72;;;11.06;61.70
47706;BME280;33471;52.104;1.318;2023-02-17T02:11:39;101392.31;;;11.16;61.62
47706;BME280;33471;52.104;1.318;2023-02-17T02:14:07;101390.19;;;10.23;62.86
47706;BME280;33471;52.104;1.318;2023-02-17T02:16:41;101392.22;;;10.71;63.72
47706;BME280;33471;52.104;1.318;2023-02-17T02:19:25;101395.96;;;10.03;65.03
47706;BME280;33471;52.104;1.318;2023-02-17T02:22:13;101392.15;;;10.81;63.49
47706;BME280;33471;52.104;1.318;2023-02-17T02:24:53;101387.75;;;10.71;63.73
47706;BME280;33471;52.104;1.318;2023-02-17T02:27:48;101382.00;;;10.66;64.26
47706;BME280;33471;52.104;1.318;2023-02-17T02:30:28;101385.02;;;10.54;65.07
47706;BME280;33471;52.104;1.318;2023-02-17T02:33:10;101373.28;;;11.09;63.25
47706;BME280;33471;52.104;1.318;2023-02-17T02:35:48;101373.52;;;11.11;63.52
47706;BME280;33471;52.104;1.318;2023-02-17T02:38:22;101381.34;;;10.87;63.33
47706;BME280;33471;52.104;1.318;2023-02-17T02:40:55;101372.75;;;11.89;61.63
47706;BME280;33471;52.104;1.318;2023-02-17T02:43:23;101367.22;;;11.57;61.17
47706;BME280;33471;52.104;1.318;2023-02-17T02:45:51;101371.20;;;11.41;61.44
47706;BME280;33471;52.104;1.318;2023-02-17T02:48:19;101366.23;;;11.71;61.43
47706;BME280;33471;52.104;1.318;2023-02-17T02:51:25;101365.01;;;11.67;64.17
47706;BME280;33471;52.104;1.318;2023-02-17T02:54:02;101366.50;;;10.68;64.19
47706;BME280;33471;52.104;1.318;2023-02-17T02:56:42;101365.19;;;10.50;65.25
47706;BME280;33471;52.104;1.318;2023-02-17T02:59:20;101369.51;;;10.42;65.52
47706;BME280;33471;52.104;1.318;2023-02-17T03:01:59;101375.47;;;10.80;64.79
47706;BME280;33471;52.104;1.318;2023-02-17T03:04:33;101379.73;;;10.59;64.38
47706;BME280;33471;52.104;1.318;2023-02-17T03:07:08;101377.11;;;11.10;63.39
47706;BME280;33471;52.104;1.318;2023-02-17T03:09:37;101377.54;;;11.38;62.84
47706;BME280;33471;52.104;1.318;2023-02-17T03:12:05;101374.42;;;11.03;63.16
47706;BME280;33471;52.104;1.318;2023-02-17T03:14:36;101365.36;;;11.14;62.48
47706;BME280;33471;52.104;1.318;2023-02-17T03:17:05;101352.37;;;12.00;60.29
47706;BME280;33471;52.104;1.318;2023-02-17T03:19:32;101356.52;;;11.22;62.84
47706;BME280;33471;52.104;1.318;2023-02-17T03:22:06;101358.71;;;10.90;64.64
47706;BME280;33471;52.104;1.318;2023-02-17T03:24:36;101358.31;;;10.89;63.11
47706;BME280;33471;52.104;1.318;2023-02-17T03:27:03;101353.23;;;10.97;63.84
47706;BME280;33471;52.104;1.318;2023-02-17T03:29:30;101343.82;;;11.84;61.28
47706;BME280;33471;52.104;1.318;2023-02-17T03:31:57;101342.55;;;11.52;62.15
47706;BME280;33471;52.104;1.318;2023-02-17T03:34:24;101342.75;;;11.97;59.95
47706;BME280;33471;52.104;1.318;2023-02-17T03:36:52;101330.12;;;12.03;60.92
47706;BME280;33471;52.104;1.318;2023-02-17T03:39:19;101330.03;;;11.15;62.18
47706;BME280;33471;52.104;1.318;2023-02-17T03:41:46;101333.29;;;11.05;63.88
47706;BME280;33471;52.104;1.318;2023-02-17T03:44:14;101335.44;;;10.57;64.43
47706;BME280;33471;52.104;1.318;2023-02-17T03:46:41;101330.38;;;11.31;62.23
47706;BME280;33471;52.104;1.318;2023-02-17T03:49:08;101328.57;;;11.92;60.99
47706;BME280;33471;52.104;1.318;2023-02-17T03:51:35;101313.07;;;10.95;63.37
47706;BME280;33471;52.104;1.318;2023-02-17T03:54:03;101314.10;;;10.78;64.21
47706;BME280;33471;52.104;1.318;2023-02-17T03:56:31;101308.51;;;11.03;62.45
47706;BME280;33471;52.104;1.318;2023-02-17T03:58:58;101308.40;;;11.49;61.58
47706;BME280;33471;52.104;1.318;2023-02-17T04:01:25;101304.88;;;10.77;63.21
47706;BME280;33471;52.104;1.318;2023-02-17T04:03:52;101308.43;;;10.99;63.36
47706;BME280;33471;52.104;1.318;2023-02-17T04:06:20;101316.87;;;11.28;62.50
47706;BME280;33471;52.104;1.318;2023-02-17T04:08:47;101312.74;;;11.06;63.38
47706;BME280;33471;52.104;1.318;2023-02-17T04:11:16;101317.57;;;10.41;64.59
47706;BME280;33471;52.104;1.318;2023-02-17T04:13:43;101317.19;;;11.16;62.79
47706;BME280;33471;52.104;1.318;2023-02-17T04:16:10;101320.51;;;10.58;63.57
47706;BME280;33471;52.104;1.318;2023-02-17T04:18:38;101322.96;;;11.56;61.83
47706;BME280;33471;52.104;1.318;2023-02-17T04:21:06;101321.77;;;11.28;62.23
47706;BME280;33471;52.104;1.318;2023-02-17T04:23:34;101330.20;;;11.08;62.15
47706;BME280;33471;52.104;1.318;2023-02-17T04:26:01;101334.12;;;10.99;63.39
47706;BME280;33471;52.104;1.318;2023-02-17T04:28:28;101339.04;;;10.42;65.33
47706;BME280;33471;52.104;1.318;2023-02-17T04:30:56;101333.72;;;11.52;62.61
47706;BME280;33471;52.104;1.318;2023-02-17T04:33:24;101328.72;;;10.89;63.40
47706;BME280;33471;52.104;1.318;2023-02-17T04:35:51;101325.36;;;10.71;63.17
47706;BME280;33471;52.104;1.318;2023-02-17T04:38:18;101337.79;;;10.78;63.44
47706;BME280;33471;52.104;1.318;2023-02-17T04:40:46;101337.27;;;11.21;62.85
47706;BME280;33471;52.104;1.318;2023-02-17T04:43:13;101339.56;;;11.10;62.17
47706;BME280;33471;52.104;1.318;2023-02-17T04:45:40;101337.25;;;11.70;60.94
47706;BME280;33471;52.104;1.318;2023-02-17T04:48:08;101337.88;;;11.06;62.51
47706;BME280;33471;52.104;1.318;2023-02-17T04:50:35;101338.73;;;11.02;63.44
47706;BME280;33471;52.104;1.318;2023-02-17T04:53:02;101330.84;;;11.11;63.14
47706;BME280;33471;52.104;1.318;2023-02-17T04:55:29;101326.27;;;11.35;62.90
47706;BME280;33471;52.104;1.318;2023-02-17T04:57:56;101335.93;;;11.23;61.89
47706;BME280;33471;52.104;1.318;2023-02-17T05:00:23;101340.97;;;10.50;63.89
47706;BME280;33471;52.104;1.318;2023-02-17T05:02:50;101336.18;;;10.46;63.81
47706;BME280;33471;52.104;1.318;2023-02-17T05:05:18;101333.35;;;10.88;62.35
47706;BME280;33471;52.104;1.318;2023-02-17T05:07:46;101332.43;;;10.89;62.85
47706;BME280;33471;52.104;1.318;2023-02-17T05:10:15;101333.25;;;10.98;62.77
47706;BME280;33471;52.104;1.318;2023-02-17T05:12:42;101333.34;;;11.19;62.33
47706;BME280;33471;52.104;1.318;2023-02-17T05:15:10;101329.73;;;11.04;61.37
47706;BME280;33471;52.104;1.318;2023-02-17T05:17:37;101338.17;;;10.41;65.13
47706;BME280;33471;52.104;1.318;2023-02-17T05:20:07;101325.37;;;11.29;60.82
47706;BME280;33471;52.104;1.318;2023-02-17T05:22:34;101328.57;;;10.56;63.62
47706;BME280;33471;52.104;1.318;2023-02-17T05:25:01;101327.92;;;11.37;61.73
47706;BME280;33471;52.104;1.318;2023-02-17T05:27:29;101329.82;;;11.04;62.61
47706;BME280;33471;52.104;1.318;2023-02-17T05:29:57;101323.59;;;10.90;62.75
47706;BME280;33471;52.104;1.318;2023-02-17T05:32:24;101326.43;;;11.46;60.74
47706;BME280;33471;52.104;1.318;2023-02-17T05:34:51;101329.32;;;11.39;60.37
47706;BME280;33471;52.104;1.318;2023-02-17T05:37:18;101324.87;;;11.44;59.81
47706;BME280;33471;52.104;1.318;2023-02-17T05:39:45;101335.09;;;10.75;63.32
47706;BME280;33471;52.104;1.318;2023-02-17T05:42:13;101342.91;;;9.98;64.34
47706;BME280;33471;52.104;1.318;2023-02-17T05:44:39;101342.26;;;9.36;66.05
47706;BME280;33471;52.104;1.318;2023-02-17T05:47:07;101339.72;;;9.58;66.17
47706;BME280;33471;52.104;1.318;2023-02-17T05:49:34;101347.29;;;10.02;64.35
47706;BME280;33471;52.104;1.318;2023-02-17T05:52:01;101350.72;;;10.07;64.21
47706;BME280;33471;52.104;1.318;2023-02-17T05:54:28;101342.70;;;10.16;63.57
47706;BME280;33471;52.104;1.318;2023-02-17T05:56:55;101333.57;;;11.32;59.85
47706;BME280;33471;52.104;1.318;2023-02-17T05:59:22;101335.85;;;10.87;60.80
47706;BME280;33471;52.104;1.318;2023-02-17T06:01:50;101334.00;;;10.92;60.72
47706;BME280;33471;52.104;1.318;2023-02-17T06:04:17;101339.65;;;10.93;60.93
47706;BME280;33471;52.104;1.318;2023-02-17T06:06:44;101334.05;;;11.03;60.64
47706;BME280;33471;52.104;1.318;2023-02-17T06:09:11;101332.30;;;9.31;64.47
47706;BME280;33471;52.104;1.318;2023-02-17T06:11:38;101331.07;;;9.49;63.53
47706;BME280;33471;52.104;1.318;2023-02-17T06:14:06;101328.45;;;9.36;63.84
47706;BME280;33471;52.104;1.318;2023-02-17T06:16:32;101332.60;;;9.04;63.66
47706;BME280;33471;52.104;1.318;2023-02-17T06:18:59;101326.07;;;9.03;64.17
47706;BME280;33471;52.104;1.318;2023-02-17T06:21:27;101326.75;;;9.18;63.61
47706;BME280;33471;52.104;1.318;2023-02-17T06:23:55;101330.32;;;9.03;63.41
47706;BME280;33471;52.104;1.318;2023-02-17T06:26:22;101329.24;;;9.12;63.29
47706;BME280;33471;52.104;1.318;2023-02-17T06:28:49;101315.85;;;10.05;59.90
47706;BME280;33471;52.104;1.318;2023-02-17T06:31:16;101313.94;;;9.97;59.29
47706;BME280;33471;52.104;1.318;2023-02-17T06:33:43;101324.86;;;10.49;58.72
47706;BME280;33471;52.104;1.318;2023-02-17T06:36:10;101315.22;;;10.97;57.92
47706;BME280;33471;52.104;1.318;2023-02-17T06:38:37;101315.15;;;10.45;59.19
47706;BME280;33471;52.104;1.318;2023-02-17T06:41:05;101321.67;;;10.57;60.13
47706;BME280;33471;52.104;1.318;2023-02-17T06:43:32;101313.18;;;9.16;63.43
47706;BME280;33471;52.104;1.318;2023-02-17T06:45:59;101306.23;;;10.00;60.70
47706;BME280;33471;52.104;1.318;2023-02-17T06:48:27;101300.79;;;9.47;61.77
47706;BME280;33471;52.104;1.318;2023-02-17T06:50:54;101297.61;;;9.77;60.58
47706;BME280;33471;52.104;1.318;2023-02-17T06:53:21;101298.03;;;9.13;62.14
47706;BME280;33471;52.104;1.318;2023-02-17T06:55:48;101298.46;;;10.26;59.64
47706;BME280;33471;52.104;1.318;2023-02-17T06:58:16;101297.33;;;10.84;57.90
47706;BME280;33471;52.104;1.318;2023-02-17T07:00:43;101295.99;;;10.41;58.80
47706;BME280;33471;52.104;1.318;2023-02-17T07:03:10;101295.53;;;10.05;59.00
47706;BME280;33471;52.104;1.318;2023-02-17T07:05:37;101304.16;;;10.25;58.89
47706;BME280;33471;52.104;1.318;2023-02-17T07:08:05;101307.14;;;10.53;57.62
47706;BME280;33471;52.104;1.318;2023-02-17T07:10:32;101305.69;;;10.52;57.64
47706;BME280;33471;52.104;1.318;2023-02-17T07:12:59;101304.75;;;10.43;58.42
47706;BME280;33471;52.104;1.318;2023-02-17T07:15:26;101305.92;;;10.41;59.57
47706;BME280;33471;52.104;1.318;2023-02-17T07:17:53;101308.79;;;10.04;59.77
47706;BME280;33471;52.104;1.318;2023-02-17T07:20:20;101316.52;;;9.59;61.41
47706;BME280;33471;52.104;1.318;2023-02-17T07:22:47;101320.00;;;8.59;63.79
47706;BME280;33471;52.104;1.318;2023-02-17T07:25:14;101324.34;;;9.97;59.72
47706;BME280;33471;52.104;1.318;2023-02-17T07:27:41;101325.01;;;10.72;59.25
47706;BME280;33471;52.104;1.318;2023-02-17T07:30:09;101318.66;;;9.76;60.78
47706;BME280;33471;52.104;1.318;2023-02-17T07:32:36;101322.81;;;10.34;59.05
47706;BME280;33471;52.104;1.318;2023-02-17T07:35:05;101331.39;;;10.21;59.15
47706;BME280;33471;52.104;1.318;2023-02-17T07:37:32;101332.02;;;9.46;61.69
47706;BME280;33471;52.104;1.318;2023-02-17T07:40:00;101344.19;;;10.16;60.88
47706;BME280;33471;52.104;1.318;2023-02-17T07:42:27;101342.40;;;10.27;59.31
47706;BME280;33471;52.104;1.318;2023-02-17T07:44:54;101341.60;;;10.27;59.04
47706;BME280;33471;52.104;1.318;2023-02-17T07:47:22;101342.03;;;9.97;61.11
47706;BME280;33471;52.104;1.318;2023-02-17T07:49:49;101338.73;;;9.83;62.07
47706;BME280;33471;52.104;1.318;2023-02-17T07:52:16;101345.68;;;9.57;62.59
47706;BME280;33471;52.104;1.318;2023-02-17T07:54:44;101342.51;;;9.59;61.43
47706;BME280;33471;52.104;1.318;2023-02-17T07:57:12;101345.57;;;9.78;60.45
47706;BME280;33471;52.104;1.318;2023-02-17T07:59:39;101329.64;;;9.36;61.50
47706;BME280;33471;52.104;1.318;2023-02-17T08:02:09;101333.22;;;10.24;59.48
47706;BME280;33471;52.104;1.318;2023-02-17T08:04:37;101332.60;;;9.65;62.15
47706;BME280;33471;52.104;1.318;2023-02-17T08:07:04;101331.87;;;9.82;60.54
47706;BME280;33471;52.104;1.318;2023-02-17T08:09:32;101334.01;;;10.36;59.88
47706;BME280;33471;52.104;1.318;2023-02-17T08:11:59;101338.32;;;10.35;59.74
47706;BME280;33471;52.104;1.318;2023-02-17T08:14:28;101331.67;;;9.91;61.47
47706;BME280;33471;52.104;1.318;2023-02-17T08:16:56;101339.90;;;9.43;61.81
47706;BME280;33471;52.104;1.318;2023-02-17T08:19:24;101335.40;;;9.96;61.14
47706;BME280;33471;52.104;1.318;2023-02-17T08:21:52;101326.47;;;9.60;62.52
47706;BME280;33471;52.104;1.318;2023-02-17T08:24:19;101336.92;;;9.71;62.53
47706;BME280;33471;52.104;1.318;2023-02-17T08:26:48;101346.50;;;9.37;63.70
47706;BME280;33471;52.104;1.318;2023-02-17T08:29:16;101340.67;;;9.90;62.86
47706;BME280;33471;52.104;1.318;2023-02-17T08:31:43;101342.24;;;9.45;63.73
47706;BME280;33471;52.104;1.318;2023-02-17T08:34:12;101345.46;;;10.10;61.38
47706;BME280;33471;52.104;1.318;2023-02-17T08:36:39;101333.20;;;9.50;64.09
47706;BME280;33471;52.104;1.318;2023-02-17T08:39:13;101331.50;;;9.45;62.94
47706;BME280;33471;52.104;1.318;2023-02-17T08:41:41;101330.76;;;9.66;63.80
47706;BME280;33471;52.104;1.318;2023-02-17T08:44:12;101334.95;;;9.66;62.54
47706;BME280;33471;52.104;1.318;2023-02-17T08:46:40;101343.64;;;9.89;63.15
47706;BME280;33471;52.104;1.318;2023-02-17T08:49:08;101343.91;;;9.42;63.97
47706;BME280;33471;52.104;1.318;2023-02-17T08:51:36;101344.83;;;9.49;64.77
47706;BME280;33471;52.104;1.318;2023-02-17T08:54:05;101344.95;;;10.09;62.02
47706;BME280;33471;52.104;1.318;2023-02-17T08:56:33;101341.56;;;10.14;61.98
47706;BME280;33471;52.104;1.318;2023-02-17T08:59:01;101337.15;;;10.32;63.02
47706;BME280;33471;52.104;1.318;2023-02-17T09:01:29;101339.02;;;9.92;64.12
47706;BME280;33471;52.104;1.318;2023-02-17T09:03:58;101340.75;;;10.41;62.91
47706;BME280;33471;52.104;1.318;2023-02-17T09:06:31;101337.17;;;10.16;63.10
47706;BME280;33471;52.104;1.318;2023-02-17T09:08:59;101336.84;;;10.19;62.93
47706;BME280;33471;52.104;1.318;2023-02-17T09:11:27;101337.14;;;10.98;62.04
47706;BME280;33471;52.104;1.318;2023-02-17T09:13:54;101348.87;;;10.22;62.55
47706;BME280;33471;52.104;1.318;2023-02-17T09:16:21;101352.40;;;10.50;63.17
47706;BME280;33471;52.104;1.318;2023-02-17T09:18:49;101357.79;;;10.51;63.28
47706;BME280;33471;52.104;1.318;2023-02-17T09:21:17;101364.27;;;9.85;65.41
47706;BME280;33471;52.104;1.318;2023-02-17T09:23:45;101370.18;;;10.03;64.89
47706;BME280;33471;52.104;1.318;2023-02-17T09:26:15;101378.21;;;10.52;62.51
47706;BME280;33471;52.104;1.318;2023-02-17T09:28:43;101375.66;;;10.46;62.47
47706;BME280;33471;52.104;1.318;2023-02-17T09:31:12;101368.56;;;10.74;61.06
47706;BME280;33471;52.104;1.318;2023-02-17T09:33:41;101359.92;;;11.13;60.88
47706;BME280;33471;52.104;1.318;2023-02-17T09:36:12;101351.30;;;10.24;63.32
47706;BME280;33471;52.104;1.318;2023-02-17T09:38:40;101357.64;;;10.46;62.55
47706;BME280;33471;52.104;1.318;2023-02-17T09:41:15;101360.54;;;10.43;62.20
47706;BME280;33471;52.104;1.318;2023-02-17T09:43:44;101360.76;;;10.79;61.49
47706;BME280;33471;52.104;1.318;2023-02-17T09:46:13;101372.49;;;11.09;61.24
47706;BME280;33471;52.104;1.318;2023-02-17T09:48:43;101376.32;;;10.85;61.52
47706;BME280;33471;52.104;1.318;2023-02-17T09:51:19;101374.29;;;11.48;60.36
47706;BME280;33471;52.104;1.318;2023-02-17T09:53:53;101375.90;;;11.49;59.63
47706;BME280;33471;52.104;1.318;2023-02-17T09:56:30;101378.95;;;12.07;58.70
47706;BME280;33471;52.104;1.318;2023-02-17T09:59:02;101368.50;;;12.07;59.02
47706;BME280;33471;52.104;1.318;2023-02-17T10:01:33;101376.71;;;11.03;61.92
47706;BME280;33471;52.104;1.318;2023-02-17T10:04:06;101376.19;;;11.23;61.89
47706;BME280;33471;52.104;1.318;2023-02-17T10:06:37;101373.58;;;10.96;61.84
47706;BME280;33471;52.104;1.318;2023-02-17T10:09:10;101367.92;;;11.92;59.39
47706;BME280;33471;52.104;1.318;2023-02-17T10:11:44;101368.88;;;12.07;58.98
47706;BME280;33471;52.104;1.318;2023-02-17T10:14:18;101381.84;;;12.00;59.06
47706;BME280;33471;52.104;1.318;2023-02-17T10:16:50;101382.32;;;11.78;59.46
47706;BME280;33471;52.104;1.318;2023-02-17T10:19:25;101389.60;;;12.96;57.07
47706;BME280;33471;52.104;1.318;2023-02-17T10:22:01;101406.26;;;12.91;56.65
47706;BME280;33471;52.104;1.318;2023-02-17T10:24:32;101412.24;;;12.94;55.71
47706;BME280;33471;52.104;1.318;2023-02-17T10:27:11;101406.59;;;12.54;57.06
47706;BME280;33471;52.104;1.318;2023-02-17T10:29:48;101405.98;;;12.49;57.11
47706;BME280;33471;52.104;1.318;2023-02-17T10:32:22;101420.94;;;12.68;56.93
47706;BME280;33471;52.104;1.318;2023-02-17T10:35:02;101422.85;;;12.45;56.76
47706;BME280;33471;52.104;1.318;2023-02-17T10:37:39;101418.72;;;12.40;57.30
47706;BME280;33471;52.104;1.318;2023-02-17T10:40:16;101428.42;;;12.51;56.95
47706;BME280;33471;52.104;1.318;2023-02-17T10:42:45;101433.03;;;12.52;56.84
47706;BME280;33471;52.104;1.318;2023-02-17T10:45:22;101432.23;;;12.24;57.56
47706;BME280;33471;52.104;1.318;2023-02-17T10:47:54;101441.28;;;13.10;55.77
47706;BME280;33471;52.104;1.318;2023-02-17T10:50:24;101443.77;;;12.59;56.07
47706;BME280;33471;52.104;1.318;2023-02-17T10:52:53;101445.65;;;13.15;55.51
47706;BME280;33471;52.104;1.318;2023-02-17T10:55:28;101455.06;;;13.05;54.97
47706;BME280;33471;52.104;1.318;2023-02-17T10:58:02;101453.31;;;12.70;56.55
47706;BME280;33471;52.104;1.318;2023-02-17T11:00:30;101455.33;;;12.12;57.33
47706;BME280;33471;52.104;1.318;2023-02-17T11:02:58;101454.59;;;12.58;56.84
47706;BME280;33471;52.104;1.318;2023-02-17T11:05:27;101459.22;;;13.20;55.40
47706;BME280;33471;52.104;1.318;2023-02-17T11:07:58;101464.56;;;12.31;57.60
47706;BME280;33471;52.104;1.318;2023-02-17T11:10:28;101467.74;;;13.58;54.69
47706;BME280;33471;52.104;1.318;2023-02-17T11:12:57;101471.79;;;13.07;55.31
47706;BME280;33471;52.104;1.318;2023-02-17T11:15:29;101469.81;;;13.06;55.50
47706;BME280;33471;52.104;1.318;2023-02-17T11:17:59;101473.97;;;13.04;55.94
47706;BME280;33471;52.104;1.318;2023-02-17T11:20:31;101468.34;;;11.80;58.02
47706;BME280;33471;52.104;1.318;2023-02-17T11:23:02;101468.81;;;13.36;55.13
47706;BME280;33471;52.104;1.318;2023-02-17T11:25:32;101472.04;;;12.50;56.82
47706;BME280;33471;52.104;1.318;2023-02-17T11:28:03;101484.56;;;13.05;56.78
47706;BME280;33471;52.104;1.318;2023-02-17T11:30:33;101509.74;;;12.90;57.03
47706;BME280;33471;52.104;1.318;2023-02-17T11:33:11;101517.80;;;12.47;56.80
47706;BME280;33471;52.104;1.318;2023-02-17T11:35:49;101518.56;;;12.55;56.14
47706;BME280;33471;52.104;1.318;2023-02-17T11:38:20;101527.78;;;13.52;54.44
47706;BME280;33471;52.104;1.318;2023-02-17T11:40:53;101522.71;;;13.33;54.48
47706;BME280;33471;52.104;1.318;2023-02-17T11:43:21;101524.92;;;13.05;54.59
47706;BME280;33471;52.104;1.318;2023-02-17T11:45:56;101527.31;;;14.14;52.76
47706;BME280;33471;52.104;1.318;2023-02-17T11:48:43;101523.56;;;12.63;55.82
47706;BME280;33471;52.104;1.318;2023-02-17T11:51:21;101540.32;;;12.37;56.28
47706;BME280;33471;52.104;1.318;2023-02-17T11:53:59;101546.97;;;12.53;56.33
47706;BME280;33471;52.104;1.318;2023-02-17T11:56:33;101543.90;;;12.44;56.71
47706;BME280;33471;52.104;1.318;2023-02-17T11:59:17;101551.31;;;12.98;55.79
47706;BME280;33471;52.104;1.318;2023-02-17T12:02:04;101552.53;;;13.11;54.30
47706;BME280;33471;52.104;1.318;2023-02-17T12:04:45;101551.59;;;14.88;50.27
47706;BME280;33471;52.104;1.318;2023-02-17T12:07:31;101552.26;;;13.55;52.54
47706;BME280;33471;52.104;1.318;2023-02-17T12:10:05;101546.89;;;13.25;53.39
47706;BME280;33471;52.104;1.318;2023-02-17T12:12:53;101553.84;;;12.84;55.44
47706;BME280;33471;52.104;1.318;2023-02-17T12:15:33;101546.94;;;13.10;54.23
47706;BME280;33471;52.104;1.318;2023-02-17T12:18:14;101544.62;;;13.04;53.86
47706;BME280;33471;52.104;1.318;2023-02-17T12:20:52;101547.94;;;13.43;53.92
47706;BME280;33471;52.104;1.318;2023-02-17T12:23:34;101545.79;;;13.12;54.81
47706;BME280;33471;52.104;1.318;2023-02-17T12:26:14;101549.88;;;12.66;54.23
47706;BME280;33471;52.104;1.318;2023-02-17T12:28:59;101558.03;;;12.53;54.46
47706;BME280;33471;52.104;1.318;2023-02-17T12:31:49;101562.40;;;13.12;53.57
47706;BME280;33471;52.104;1.318;2023-02-17T12:34:23;101584.36;;;13.12;53.50
47706;BME280;33471;52.104;1.318;2023-02-17T12:36:51;101583.59;;;13.52;52.20
47706;BME280;33471;52.104;1.318;2023-02-17T12:39:24;101592.07;;;13.38;52.01
47706;BME280;33471;52.104;1.318;2023-02-17T12:41:57;101588.20;;;13.06;52.83
47706;BME280;33471;52.104;1.318;2023-02-17T12:44:27;101591.83;;;13.58;52.10
47706;BME280;33471;52.104;1.318;2023-02-17T12:46:58;101580.15;;;14.18;50.23
47706;BME280;33471;52.104;1.318;2023-02-17T12:49:35;101582.09;;;13.63;50.36
47706;BME280;33471;52.104;1.318;2023-02-17T12:52:07;101575.70;;;13.69;50.35
47706;BME280;33471;52.104;1.318;2023-02-17T12:54:39;101588.77;;;14.16;49.96
47706;BME280;33471;52.104;1.318;2023-02-17T12:57:13;101596.94;;;13.87;49.83
47706;BME280;33471;52.104;1.318;2023-02-17T12:59:42;101586.39;;;13.10;52.42
47706;BME280;33471;52.104;1.318;2023-02-17T13:02:12;101592.60;;;13.09;52.26
47706;BME280;33471;52.104;1.318;2023-02-17T13:04:41;101600.17;;;13.42;51.69
47706;BME280;33471;52.104;1.318;2023-02-17T13:07:20;101604.27;;;13.34;51.57
47706;BME280;33471;52.104;1.318;2023-02-17T13:09:50;101614.93;;;14.12;50.11